Tennessee — FM3908 — position and weather

sailwx.info

Track history (hours):
 
Tides and Currents Weather Stations Pressure Air Temp Water Temp Dewpoint Dewpoint Depression Visibility Wind Speed Wind Dir Waves Ship Positions

Tennessee

Last reported at 2015-Apr-08 17:31 UTC. Time now 2015-Apr-19 01:08 UTC.
Position N 43°40' E 004°36'.
Warning: this ship's position is 10 days out of date.

Length 80 m; draft 0.3 m.

Type: Ship. MMSI: 227095770.

Date/timePositionNaut miles runAvg speedWind from/ knotsBaromVisibWave heightAir tempDewpointWater temp
2015-Apr-08 17:31N 43°40' E 004°36'18 6.2
2015-Apr-08 14:33N 43°23' E 004°47'2 1.1
2015-Apr-08 12:26N 43°23' E 004°50'0 0.2
2015-Apr-08 11:29N 43°23' E 004°51'0 0.0
2015-Apr-08 10:27N 43°23' E 004°51'0 0.0
2015-Apr-08 07:24N 43°23' E 004°50'0 0.1
2015-Apr-08 05:32N 43°23' E 004°50'0 0.0
2015-Apr-07 20:13N 43°23' E 004°50'0 0.0
2015-Apr-07 13:15N 43°23' E 004°50'0 0.0
2015-Apr-07 08:33N 43°23' E 004°50'0 0.0
2015-Apr-07 06:28N 43°23' E 004°50'0 0.0
2015-Apr-06 19:32N 43°23' E 004°50'0 0.0
2015-Apr-06 13:05N 43°23' E 004°50'0 0.0
2015-Apr-06 00:33N 43°23' E 004°50'0 0.0
2015-Apr-05 19:33N 43°23' E 004°50'0 0.0
2015-Apr-05 13:11N 43°23' E 004°50'0 0.0
2015-Apr-05 02:28N 43°23' E 004°50'0 0.0
2015-Apr-05 00:04N 43°23' E 004°50'0 0.0
2015-Apr-04 17:20N 43°23' E 004°50'0 0.0
2015-Apr-04 16:28N 43°23' E 004°50'0 0.0
2015-Apr-04 15:17N 43°23' E 004°50'0 0.0
2015-Apr-04 12:14N 43°23' E 004°50'0 0.0
2015-Apr-04 10:21N 43°23' E 004°50'0 0.0
2015-Apr-04 08:18N 43°23' E 004°50'0 0.0
2015-Apr-04 06:05N 43°23' E 004°50'1 0.1
2015-Apr-03 19:25N 43°23' E 004°48'0 0.0
2015-Apr-03 08:31N 43°23' E 004°48'0 0.0
2015-Apr-01 11:07N 43°23' E 004°48'0 0.0
2015-Apr-01 10:34N 43°23' E 004°48'0 0.0
2015-Apr-01 09:33N 43°23' E 004°48'0 0.0
2015-Apr-01 08:33N 43°23' E 004°48'0 0.0
2015-Apr-01 07:33N 43°23' E 004°48'0 0.0
2015-Apr-01 06:33N 43°23' E 004°48'0 0.0
2015-Apr-01 05:33N 43°23' E 004°48'0 0.0
2015-Apr-01 04:34N 43°23' E 004°48'0 0.0
2015-Apr-01 03:33N 43°23' E 004°48'0 0.0
2015-Apr-01 02:33N 43°23' E 004°48'0 0.0
2015-Apr-01 01:33N 43°23' E 004°48'0 0.0
2015-Apr-01 00:33N 43°23' E 004°48'0 0.0
2015-Mar-31 23:33N 43°23' E 004°48'0 0.0
2015-Mar-31 22:33N 43°23' E 004°48'0 0.0
2015-Mar-31 21:34N 43°23' E 004°48'0 0.0
2015-Mar-31 20:34N 43°23' E 004°48'0 0.0
2015-Mar-31 19:33N 43°23' E 004°48'0 0.0
2015-Mar-31 18:33N 43°23' E 004°48'0 0.0
2015-Mar-31 17:34N 43°23' E 004°48'0 0.0
2015-Mar-31 16:34N 43°23' E 004°48'0 0.0
2015-Mar-31 15:33N 43°23' E 004°48'0 0.0
2015-Mar-31 14:33N 43°23' E 004°48'0 0.0
2015-Mar-31 13:34N 43°23' E 004°48'0 0.0
2015-Mar-31 12:33N 43°23' E 004°48'4 4.2
2015-Mar-31 11:34N 43°26' E 004°44'  
Track history (hours):
 
Tides and Currents Weather Stations Pressure Air Temp Water Temp Dewpoint Dewpoint Depression Visibility Wind Speed Wind Dir Waves Ship Positions

Tennessee

Last reported at 2015-Apr-08 17:31 UTC. Time now 2015-Apr-19 01:08 UTC.
Position N 43°40' E 004°36'.
Warning: this ship's position is 10 days out of date.

Length 80 m; draft 0.3 m.

Type: Ship. MMSI: 227095770.

Date/timePositionNaut miles runAvg speedWind from/ knotsBaromVisibWave heightAir tempDewpointWater temp
2015-Apr-08 17:31N 43°40' E 004°36'18 6.2
2015-Apr-08 14:33N 43°23' E 004°47'2 1.1
2015-Apr-08 12:26N 43°23' E 004°50'0 0.2
2015-Apr-08 11:29N 43°23' E 004°51'0 0.0
2015-Apr-08 10:27N 43°23' E 004°51'0 0.0
2015-Apr-08 07:24N 43°23' E 004°50'0 0.1
2015-Apr-08 05:32N 43°23' E 004°50'0 0.0
2015-Apr-07 20:13N 43°23' E 004°50'0 0.0
2015-Apr-07 13:15N 43°23' E 004°50'0 0.0
2015-Apr-07 08:33N 43°23' E 004°50'0 0.0
2015-Apr-07 06:28N 43°23' E 004°50'0 0.0
2015-Apr-06 19:32N 43°23' E 004°50'0 0.0
2015-Apr-06 13:05N 43°23' E 004°50'0 0.0
2015-Apr-06 00:33N 43°23' E 004°50'0 0.0
2015-Apr-05 19:33N 43°23' E 004°50'0 0.0
2015-Apr-05 13:11N 43°23' E 004°50'0 0.0
2015-Apr-05 02:28N 43°23' E 004°50'0 0.0
2015-Apr-05 00:04N 43°23' E 004°50'0 0.0
2015-Apr-04 17:20N 43°23' E 004°50'0 0.0
2015-Apr-04 16:28N 43°23' E 004°50'0 0.0
2015-Apr-04 15:17N 43°23' E 004°50'0 0.0
2015-Apr-04 12:14N 43°23' E 004°50'0 0.0
2015-Apr-04 10:21N 43°23' E 004°50'0 0.0
2015-Apr-04 08:18N 43°23' E 004°50'0 0.0
2015-Apr-04 06:05N 43°23' E 004°50'1 0.1
2015-Apr-03 19:25N 43°23' E 004°48'0 0.0
2015-Apr-03 08:31N 43°23' E 004°48'0 0.0
2015-Apr-01 11:07N 43°23' E 004°48'0 0.0
2015-Apr-01 10:34N 43°23' E 004°48'0 0.0
2015-Apr-01 09:33N 43°23' E 004°48'0 0.0
2015-Apr-01 08:33N 43°23' E 004°48'0 0.0
2015-Apr-01 07:33N 43°23' E 004°48'0 0.0
2015-Apr-01 06:33N 43°23' E 004°48'0 0.0
2015-Apr-01 05:33N 43°23' E 004°48'0 0.0
2015-Apr-01 04:34N 43°23' E 004°48'0 0.0
2015-Apr-01 03:33N 43°23' E 004°48'0 0.0
2015-Apr-01 02:33N 43°23' E 004°48'0 0.0
2015-Apr-01 01:33N 43°23' E 004°48'0 0.0
2015-Apr-01 00:33N 43°23' E 004°48'0 0.0
2015-Mar-31 23:33N 43°23' E 004°48'0 0.0
2015-Mar-31 22:33N 43°23' E 004°48'0 0.0
2015-Mar-31 21:34N 43°23' E 004°48'0 0.0
2015-Mar-31 20:34N 43°23' E 004°48'0 0.0
2015-Mar-31 19:33N 43°23' E 004°48'0 0.0
2015-Mar-31 18:33N 43°23' E 004°48'0 0.0
2015-Mar-31 17:34N 43°23' E 004°48'0 0.0
2015-Mar-31 16:34N 43°23' E 004°48'0 0.0
2015-Mar-31 15:33N 43°23' E 004°48'0 0.0
2015-Mar-31 14:33N 43°23' E 004°48'0 0.0
2015-Mar-31 13:34N 43°23' E 004°48'0 0.0
2015-Mar-31 12:33N 43°23' E 004°48'4 4.2
2015-Mar-31 11:34N 43°26' E 004°44'  

Dump ship's entire track history